createdAt,value
2023-03-21T00:00:31.954Z,10.46
2023-03-21T00:02:58.932Z,10.52
2023-03-21T00:05:25.994Z,10.57
2023-03-21T00:07:53.310Z,10.47
2023-03-21T00:10:33.033Z,10.34
2023-03-21T00:13:06.342Z,10.45
2023-03-21T00:15:44.098Z,10.46
2023-03-21T00:18:15.984Z,10.28
2023-03-21T00:20:46.494Z,10.12
2023-03-21T00:23:13.427Z,10.04
2023-03-21T00:25:41.521Z,10.12
2023-03-21T00:28:08.924Z,10.21
2023-03-21T00:30:35.843Z,10.20
2023-03-21T00:33:08.965Z,10.13
2023-03-21T00:36:06.386Z,10.20
2023-03-21T00:38:34.618Z,10.04
2023-03-21T00:41:18.792Z,9.88
2023-03-21T00:43:48.240Z,9.96
2023-03-21T00:46:15.585Z,10.00
2023-03-21T00:48:42.542Z,10.05
2023-03-21T00:51:21.442Z,10.05
2023-03-21T00:53:48.495Z,9.62
2023-03-21T00:56:15.368Z,9.59
2023-03-21T00:58:42.221Z,9.62
2023-03-21T01:01:09.565Z,9.65
2023-03-21T01:03:47.999Z,9.59
2023-03-21T01:06:19.545Z,9.57
2023-03-21T01:08:53.182Z,9.53
2023-03-21T01:11:29.424Z,9.66
2023-03-21T01:14:10.867Z,9.61
2023-03-21T01:16:42.696Z,9.55
2023-03-21T01:19:24.000Z,9.46
2023-03-21T01:21:52.241Z,9.69
2023-03-21T01:24:19.171Z,9.90
2023-03-21T01:26:46.257Z,9.87
2023-03-21T01:29:13.518Z,9.95
2023-03-21T01:31:40.818Z,9.91
2023-03-21T01:34:07.896Z,10.00
2023-03-21T01:36:34.888Z,9.80
2023-03-21T01:39:06.774Z,9.13
2023-03-21T01:41:43.541Z,9.25
2023-03-21T01:44:26.712Z,9.32
2023-03-21T01:47:12.293Z,9.35
2023-03-21T01:49:45.950Z,9.37
2023-03-21T01:52:39.003Z,9.48
2023-03-21T01:55:19.538Z,9.47
2023-03-21T01:58:05.987Z,9.49
2023-03-21T02:01:10.740Z,9.54
2023-03-21T02:03:50.942Z,9.64
2023-03-21T02:06:49.446Z,9.78
2023-03-21T02:09:40.347Z,9.86
2023-03-21T02:12:13.216Z,9.83
2023-03-21T02:14:40.727Z,9.70
2023-03-21T02:17:43.853Z,9.52
2023-03-21T02:20:33.061Z,9.52
2023-03-21T02:23:11.603Z,9.48
2023-03-21T02:26:23.386Z,9.42
2023-03-21T02:29:09.348Z,9.54
2023-03-21T02:31:47.220Z,9.63
2023-03-21T02:34:32.435Z,9.88
2023-03-21T02:37:36.659Z,10.01
2023-03-21T02:40:14.517Z,10.12
2023-03-21T02:43:22.633Z,10.22
2023-03-21T02:46:02.088Z,10.30
2023-03-21T02:48:49.827Z,10.26
2023-03-21T02:51:21.755Z,10.08
2023-03-21T02:54:21.361Z,10.09
2023-03-21T02:56:43.125Z,10.02
2023-03-21T02:59:10.748Z,10.14
2023-03-21T03:01:37.784Z,10.02
2023-03-21T03:04:05.100Z,10.02
2023-03-21T03:07:03.795Z,10.03
2023-03-21T03:09:58.635Z,9.96
2023-03-21T03:13:04.616Z,9.64
2023-03-21T03:16:06.133Z,9.40
2023-03-21T03:18:55.511Z,9.47
2023-03-21T03:21:47.756Z,9.50
2023-03-21T03:24:24.244Z,9.33
2023-03-21T03:26:56.848Z,9.41
2023-03-21T03:29:29.345Z,9.53
2023-03-21T03:32:01.787Z,9.47
2023-03-21T03:34:39.624Z,9.43
2023-03-21T03:37:14.693Z,9.29
2023-03-21T03:39:47.854Z,9.29
2023-03-21T03:42:28.667Z,8.83
2023-03-21T03:45:07.606Z,9.09
2023-03-21T03:47:56.844Z,9.13
2023-03-21T03:50:52.390Z,9.34
2023-03-21T03:53:42.955Z,9.49
2023-03-21T03:56:13.215Z,9.69
2023-03-21T03:58:45.731Z,9.87
2023-03-21T04:01:16.144Z,9.58
2023-03-21T04:03:51.036Z,9.68
2023-03-21T04:06:22.226Z,9.78
2023-03-21T04:08:51.071Z,9.95
2023-03-21T04:11:18.235Z,10.06
2023-03-21T04:13:50.508Z,9.89
2023-03-21T04:16:23.469Z,10.06
2023-03-21T04:18:52.540Z,10.12
2023-03-21T04:21:20.000Z,10.14
2023-03-21T04:23:47.030Z,10.00
2023-03-21T04:26:14.037Z,9.67
2023-03-21T04:28:51.333Z,9.53
2023-03-21T04:31:27.249Z,9.70
2023-03-21T04:34:09.970Z,9.60
2023-03-21T04:36:39.484Z,10.04
2023-03-21T04:39:12.675Z,10.17
2023-03-21T04:41:41.950Z,10.06
2023-03-21T04:44:10.417Z,10.07
2023-03-21T04:46:38.197Z,10.00
2023-03-21T04:49:07.157Z,9.90
2023-03-21T04:51:35.010Z,10.19
2023-03-21T04:54:02.393Z,10.10
2023-03-21T04:56:34.138Z,9.59
2023-03-21T04:59:06.065Z,9.55
2023-03-21T05:01:34.135Z,9.68
2023-03-21T05:04:02.368Z,9.58
2023-03-21T05:06:32.188Z,9.52
2023-03-21T05:09:01.597Z,9.62
2023-03-21T05:11:31.397Z,9.25
2023-03-21T05:13:59.779Z,9.73
2023-03-21T05:16:30.625Z,10.00
2023-03-21T05:19:03.843Z,10.08
2023-03-21T05:21:41.361Z,10.24
2023-03-21T05:24:19.373Z,9.96
2023-03-21T05:26:56.338Z,9.81
2023-03-21T05:29:26.823Z,9.48
2023-03-21T05:32:01.335Z,9.64
2023-03-21T05:34:29.257Z,9.61
2023-03-21T05:36:56.680Z,9.59
2023-03-21T05:39:26.636Z,9.50
2023-03-21T05:42:01.924Z,9.49
2023-03-21T05:44:29.560Z,9.49
2023-03-21T05:46:56.512Z,9.52
2023-03-21T05:49:31.766Z,9.64
2023-03-21T05:52:01.356Z,9.63
2023-03-21T05:54:28.420Z,9.61
2023-03-21T05:56:55.931Z,9.60
2023-03-21T05:59:41.843Z,9.53
2023-03-21T06:02:09.066Z,9.84
2023-03-21T06:04:36.015Z,9.96
2023-03-21T06:07:03.406Z,9.86
2023-03-21T06:09:30.586Z,9.67
2023-03-21T06:12:01.257Z,9.98
2023-03-21T06:14:28.340Z,10.13
2023-03-21T06:17:14.158Z,10.28
2023-03-21T06:19:47.493Z,10.64
2023-03-21T06:22:20.817Z,10.82
2023-03-21T06:24:48.409Z,11.17
2023-03-21T06:27:17.837Z,11.59
2023-03-21T06:29:53.884Z,12.10
2023-03-21T06:32:21.949Z,12.38
2023-03-21T06:34:55.112Z,12.83
2023-03-21T06:37:22.160Z,13.17
2023-03-21T06:39:51.748Z,13.38
2023-03-21T06:42:21.200Z,13.62
2023-03-21T06:44:48.468Z,13.81
2023-03-21T06:47:16.735Z,13.66
2023-03-21T06:49:45.871Z,13.58
2023-03-21T06:52:13.610Z,13.70
2023-03-21T06:54:41.171Z,13.64
2023-03-21T06:57:13.631Z,13.69
2023-03-21T06:59:42.063Z,13.78
2023-03-21T07:02:13.822Z,13.82
2023-03-21T07:04:46.993Z,13.77
2023-03-21T07:07:19.385Z,13.95
2023-03-21T07:09:46.939Z,14.05
2023-03-21T07:12:14.025Z,13.64
2023-03-21T07:14:58.666Z,14.17
2023-03-21T07:17:26.890Z,14.39
2023-03-21T07:19:54.441Z,14.42
2023-03-21T07:22:21.642Z,14.51
2023-03-21T07:24:55.956Z,14.50
2023-03-21T07:27:30.254Z,14.33
2023-03-21T07:29:57.266Z,14.50
2023-03-21T07:32:24.324Z,14.25
2023-03-21T07:34:51.380Z,14.41
2023-03-21T07:37:18.636Z,14.43
2023-03-21T07:39:45.534Z,14.66
2023-03-21T07:42:12.633Z,14.88
2023-03-21T07:44:40.317Z,14.68
2023-03-21T07:47:07.235Z,15.16
2023-03-21T07:49:34.241Z,14.96
2023-03-21T07:52:04.608Z,14.73
2023-03-21T07:54:32.022Z,14.92
2023-03-21T07:56:59.236Z,15.04
2023-03-21T07:59:26.252Z,15.05
2023-03-21T08:01:53.338Z,15.06
2023-03-21T08:04:20.470Z,15.09
2023-03-21T08:06:47.455Z,15.25
2023-03-21T08:09:14.609Z,15.07
2023-03-21T08:11:41.443Z,15.49
2023-03-21T08:14:08.372Z,15.47
2023-03-21T08:16:35.884Z,15.63
2023-03-21T08:19:02.955Z,15.91
2023-03-21T08:21:30.548Z,15.69
2023-03-21T08:23:57.660Z,15.83
2023-03-21T08:26:26.610Z,15.90
2023-03-21T08:28:53.710Z,15.86
2023-03-21T08:31:21.952Z,15.94
2023-03-21T08:33:53.762Z,16.03
2023-03-21T08:36:24.750Z,15.88
2023-03-21T08:38:56.908Z,15.98
2023-03-21T08:41:25.956Z,15.81
2023-03-21T08:43:52.952Z,15.81
2023-03-21T08:46:19.889Z,15.73
2023-03-21T08:48:47.071Z,15.82
2023-03-21T08:51:14.043Z,15.99
2023-03-21T08:53:41.728Z,16.22
2023-03-21T08:56:09.194Z,15.82
2023-03-21T08:58:36.584Z,16.05
2023-03-21T09:01:04.615Z,15.99
2023-03-21T09:03:32.049Z,16.10
2023-03-21T09:05:59.916Z,16.23
2023-03-21T09:08:27.098Z,16.17
2023-03-21T09:10:55.017Z,16.48
2023-03-21T09:13:22.848Z,16.52
2023-03-21T09:15:50.003Z,16.71
2023-03-21T09:18:18.121Z,16.80
2023-03-21T09:20:47.027Z,16.86
2023-03-21T09:23:14.898Z,16.97
2023-03-21T09:25:42.948Z,17.21
2023-03-21T09:28:10.092Z,17.17
2023-03-21T09:30:37.358Z,17.30
2023-03-21T09:33:09.857Z,17.11
2023-03-21T09:35:37.744Z,17.04
2023-03-21T09:38:05.663Z,16.92
2023-03-21T09:40:54.705Z,17.25
2023-03-21T09:43:43.975Z,17.12
2023-03-21T09:46:19.241Z,17.18
2023-03-21T09:49:03.130Z,17.47
2023-03-21T09:51:35.002Z,17.72
2023-03-21T09:54:26.062Z,17.83
2023-03-21T09:56:57.593Z,17.51
2023-03-21T09:59:40.125Z,17.42
2023-03-21T10:02:16.779Z,17.60
2023-03-21T10:04:46.502Z,17.60
2023-03-21T10:07:19.917Z,17.69
2023-03-21T10:09:48.997Z,17.72
2023-03-21T10:12:23.128Z,17.32
2023-03-21T10:14:58.152Z,17.48
2023-03-21T10:17:43.731Z,17.47
2023-03-21T10:20:12.004Z,17.67
2023-03-21T10:22:42.511Z,17.66
2023-03-21T10:25:16.031Z,17.63
2023-03-21T10:27:43.379Z,17.37
2023-03-21T10:30:39.470Z,17.57
2023-03-21T10:33:11.650Z,17.92
2023-03-21T10:35:41.571Z,17.78
2023-03-21T10:38:16.629Z,18.05
2023-03-21T10:40:44.252Z,18.27
2023-03-21T10:43:31.435Z,18.29
2023-03-21T10:45:58.588Z,18.10
2023-03-21T10:48:26.144Z,17.89
2023-03-21T10:50:55.701Z,17.91
2023-03-21T10:53:29.619Z,17.73
2023-03-21T10:55:59.704Z,17.65
2023-03-21T10:58:35.185Z,17.29
2023-03-21T11:01:04.877Z,17.18
2023-03-21T11:03:36.861Z,17.34
2023-03-21T11:06:22.681Z,17.49
2023-03-21T11:08:54.141Z,17.67
2023-03-21T11:11:27.724Z,17.95
2023-03-21T11:14:03.351Z,17.94
2023-03-21T11:16:35.527Z,17.94
2023-03-21T11:19:12.307Z,18.04
2023-03-21T11:21:39.491Z,18.34
2023-03-21T11:24:11.818Z,18.30
2023-03-21T11:26:43.448Z,18.39
2023-03-21T11:29:31.248Z,18.77
2023-03-21T11:32:02.173Z,19.21
2023-03-21T11:34:38.764Z,19.41
2023-03-21T11:37:06.392Z,19.44
2023-03-21T11:39:39.836Z,19.63
2023-03-21T11:42:41.081Z,19.61
2023-03-21T11:45:14.780Z,19.52
2023-03-21T11:47:42.192Z,19.49
2023-03-21T11:50:20.358Z,19.43
2023-03-21T11:53:17.041Z,19.54
2023-03-21T11:55:56.353Z,19.54
2023-03-21T11:59:17.386Z,19.71
2023-03-21T12:01:58.766Z,19.53
2023-03-21T12:04:39.601Z,19.56
2023-03-21T12:07:15.811Z,19.57
2023-03-21T12:09:44.766Z,19.36
2023-03-21T12:12:39.192Z,19.13
2023-03-21T12:15:27.746Z,19.15
2023-03-21T12:18:11.106Z,19.32
2023-03-21T12:21:07.076Z,19.03
2023-03-21T12:23:49.125Z,18.91
2023-03-21T12:26:29.585Z,18.63
2023-03-21T12:29:30.129Z,18.91
2023-03-21T12:32:20.583Z,18.86
2023-03-21T12:35:19.796Z,18.32
2023-03-21T12:38:02.123Z,18.27
2023-03-21T12:40:31.769Z,18.50
2023-03-21T12:43:20.852Z,18.65
2023-03-21T12:45:53.469Z,18.43
2023-03-21T12:48:45.506Z,18.02
2023-03-21T12:51:16.264Z,18.02
2023-03-21T12:53:59.200Z,18.18
2023-03-21T12:56:34.122Z,18.40
2023-03-21T12:59:18.788Z,18.20
2023-03-21T13:01:50.564Z,18.21
2023-03-21T13:04:44.252Z,18.51
2023-03-21T13:07:17.632Z,18.28
2023-03-21T13:09:44.609Z,18.29
2023-03-21T13:12:41.605Z,18.50
2023-03-21T13:15:48.628Z,18.85
2023-03-21T13:18:34.404Z,18.93
2023-03-21T13:21:08.271Z,18.86
2023-03-21T13:23:37.838Z,18.59
2023-03-21T13:26:11.222Z,18.81
2023-03-21T13:28:40.861Z,18.73
2023-03-21T13:31:27.013Z,18.95
2023-03-21T13:33:58.780Z,18.73
2023-03-21T13:36:29.220Z,18.89
2023-03-21T13:39:03.018Z,18.45
2023-03-21T13:41:34.603Z,18.37
2023-03-21T13:44:04.274Z,18.60
2023-03-21T13:46:40.596Z,18.79
2023-03-21T13:49:27.664Z,18.91
2023-03-21T13:51:59.103Z,18.93
2023-03-21T13:55:07.339Z,18.99
2023-03-21T13:57:34.297Z,18.85
2023-03-21T14:00:25.700Z,18.59
2023-03-21T14:02:56.448Z,18.62
2023-03-21T14:05:26.064Z,18.74
2023-03-21T14:08:15.381Z,18.92
2023-03-21T14:10:47.226Z,18.92
2023-03-21T14:13:19.620Z,19.06
2023-03-21T14:15:55.902Z,19.07
2023-03-21T14:18:51.709Z,19.15
2023-03-21T14:21:23.575Z,19.06
2023-03-21T14:24:14.586Z,18.90
2023-03-21T14:26:45.611Z,18.87
2023-03-21T14:29:26.918Z,19.01
2023-03-21T14:31:56.508Z,18.98
2023-03-21T14:34:27.229Z,18.98
2023-03-21T14:36:58.797Z,18.85
2023-03-21T14:39:32.367Z,18.86
2023-03-21T14:42:12.411Z,18.58
2023-03-21T14:44:53.920Z,18.60
2023-03-21T14:47:25.656Z,18.21
2023-03-21T14:49:53.166Z,17.99
2023-03-21T14:52:31.672Z,17.95
2023-03-21T14:55:00.808Z,17.94
2023-03-21T14:57:31.416Z,17.92
2023-03-21T15:00:06.588Z,17.85
2023-03-21T15:02:36.869Z,17.69
2023-03-21T15:05:24.818Z,17.57
2023-03-21T15:07:57.751Z,17.56
2023-03-21T15:10:27.614Z,17.59
2023-03-21T15:12:57.811Z,17.47
2023-03-21T15:15:27.696Z,17.36
2023-03-21T15:17:57.466Z,17.28
2023-03-21T15:20:28.603Z,17.17
2023-03-21T15:23:01.165Z,17.31
2023-03-21T15:25:33.056Z,17.43
2023-03-21T15:28:00.543Z,17.45
2023-03-21T15:30:30.383Z,17.40
2023-03-21T15:32:59.505Z,17.22
2023-03-21T15:35:40.624Z,17.20
2023-03-21T15:38:42.766Z,17.31
2023-03-21T15:41:21.746Z,17.31
2023-03-21T15:44:00.019Z,17.13
2023-03-21T15:46:43.635Z,17.10
2023-03-21T15:49:13.577Z,16.87
2023-03-21T15:51:54.301Z,16.89
2023-03-21T15:54:47.888Z,16.93
2023-03-21T15:57:29.995Z,16.78
2023-03-21T16:00:07.242Z,16.75
2023-03-21T16:02:42.201Z,16.62
2023-03-21T16:05:18.090Z,16.50
2023-03-21T16:07:47.132Z,16.21
2023-03-21T16:10:37.473Z,16.09
2023-03-21T16:13:05.126Z,16.16
2023-03-21T16:15:33.110Z,15.94
2023-03-21T16:18:02.225Z,16.16
2023-03-21T16:20:35.172Z,16.15
2023-03-21T16:23:02.940Z,16.38
2023-03-21T16:25:32.245Z,16.44
2023-03-21T16:27:59.413Z,16.57
2023-03-21T16:30:26.336Z,16.61
2023-03-21T16:32:53.270Z,16.69
2023-03-21T16:35:23.443Z,16.77
2023-03-21T16:37:50.814Z,16.47
2023-03-21T16:40:28.168Z,16.61
2023-03-21T16:42:55.099Z,16.57
2023-03-21T16:45:23.133Z,16.45
2023-03-21T16:47:50.983Z,16.38
2023-03-21T16:50:39.874Z,16.42
2023-03-21T16:53:07.068Z,16.36
2023-03-21T16:55:36.251Z,16.36
2023-03-21T16:58:04.065Z,16.38
2023-03-21T17:00:31.869Z,16.31
2023-03-21T17:03:08.836Z,16.01
2023-03-21T17:05:35.790Z,16.05
2023-03-21T17:08:04.219Z,16.20
2023-03-21T17:10:32.867Z,15.81
2023-03-21T17:13:00.090Z,16.03
2023-03-21T17:15:26.943Z,16.08
2023-03-21T17:17:55.713Z,16.04
2023-03-21T17:20:33.902Z,15.96
2023-03-21T17:23:01.575Z,15.62
2023-03-21T17:25:28.701Z,15.48
2023-03-21T17:27:56.266Z,15.46
2023-03-21T17:30:27.535Z,15.50
2023-03-21T17:32:54.865Z,15.47
2023-03-21T17:35:23.707Z,15.35
2023-03-21T17:37:51.754Z,15.53
2023-03-21T17:40:24.586Z,15.62
2023-03-21T17:42:52.258Z,15.58
2023-03-21T17:45:19.841Z,15.47
2023-03-21T17:47:47.350Z,15.38
2023-03-21T17:50:17.656Z,15.50
2023-03-21T17:52:45.121Z,15.47
2023-03-21T17:55:12.740Z,15.51
2023-03-21T17:57:39.939Z,15.50
2023-03-21T18:00:12.581Z,15.51
2023-03-21T18:02:40.570Z,15.43
2023-03-21T18:05:08.687Z,15.53
2023-03-21T18:08:08.066Z,15.60
2023-03-21T18:10:26.168Z,15.60
2023-03-21T18:12:56.291Z,15.50
2023-03-21T18:15:25.452Z,15.76
2023-03-21T18:17:52.322Z,15.81
2023-03-21T18:20:23.778Z,15.75
2023-03-21T18:22:52.114Z,15.83
2023-03-21T18:25:21.501Z,15.73
2023-03-21T18:28:09.628Z,15.36
2023-03-21T18:30:53.510Z,15.49
2023-03-21T18:33:22.485Z,15.36
2023-03-21T18:35:55.919Z,15.42
2023-03-21T18:38:25.583Z,15.20
2023-03-21T18:40:52.467Z,15.16
2023-03-21T18:46:07.232Z,15.43
2023-03-21T18:48:35.675Z,15.41
2023-03-21T18:51:03.815Z,15.52
2023-03-21T18:53:30.765Z,15.56
2023-03-21T18:55:57.859Z,15.43
2023-03-21T18:58:25.343Z,15.43
2023-03-21T19:00:53.900Z,15.22
2023-03-21T19:03:35.134Z,15.57
2023-03-21T19:06:05.083Z,15.57
2023-03-21T19:08:34.764Z,15.42
2023-03-21T19:11:05.969Z,15.32
2023-03-21T19:13:33.842Z,15.30
2023-03-21T19:16:02.611Z,15.28
2023-03-21T19:18:52.093Z,15.27
2023-03-21T19:21:21.661Z,15.10
2023-03-21T19:26:36.016Z,15.10
2023-03-21T19:29:03.367Z,15.07
2023-03-21T19:31:30.511Z,14.91
2023-03-21T19:33:57.443Z,14.90
2023-03-21T19:36:26.375Z,14.87
2023-03-21T19:38:53.779Z,14.77
2023-03-21T19:41:20.926Z,14.69
2023-03-21T19:43:54.784Z,14.59
2023-03-21T19:46:25.432Z,14.43
2023-03-21T19:48:57.062Z,14.38
2023-03-21T19:51:30.596Z,13.82
2023-03-21T19:54:05.355Z,13.87
2023-03-21T19:56:32.433Z,13.69
2023-03-21T19:59:01.265Z,14.11
2023-03-21T20:01:28.335Z,13.91
2023-03-21T20:03:55.481Z,14.05
2023-03-21T20:06:24.083Z,14.16
2023-03-21T20:11:39.227Z,13.99
2023-03-21T20:14:06.530Z,14.07
2023-03-21T20:16:35.467Z,14.00
2023-03-21T20:19:05.092Z,13.84
2023-03-21T20:21:40.335Z,13.73
2023-03-21T20:24:13.552Z,13.71
2023-03-21T20:26:40.880Z,13.81
2023-03-21T20:29:56.430Z,13.61
2023-03-21T20:31:54.942Z,13.71
2023-03-21T20:34:21.843Z,13.78
2023-03-21T20:36:49.062Z,13.72
2023-03-21T20:39:16.044Z,13.81
2023-03-21T20:41:43.158Z,13.43
2023-03-21T20:46:57.561Z,13.54
2023-03-21T20:49:24.987Z,13.54
2023-03-21T20:54:39.239Z,13.58
2023-03-21T20:57:06.092Z,13.63
2023-03-21T20:59:33.623Z,13.69
2023-03-21T21:02:00.712Z,13.56
2023-03-21T21:04:48.250Z,13.64
2023-03-21T21:07:20.339Z,13.71
2023-03-21T21:09:48.632Z,13.67
2023-03-21T21:12:19.283Z,13.40
2023-03-21T21:14:47.911Z,13.58
2023-03-21T21:20:16.321Z,13.69
2023-03-21T21:22:58.647Z,13.49
2023-03-21T21:25:26.706Z,13.66
2023-03-21T21:27:53.900Z,13.66
2023-03-21T21:30:21.379Z,13.51
2023-03-21T21:32:49.484Z,13.50
2023-03-21T21:35:19.435Z,13.63
2023-03-21T21:37:46.409Z,13.22
2023-03-21T21:40:15.716Z,13.41
2023-03-21T21:42:44.140Z,13.35
2023-03-21T21:45:12.654Z,13.26
2023-03-21T21:47:40.523Z,13.14
2023-03-21T21:50:08.206Z,13.20
2023-03-21T21:52:35.534Z,13.32
2023-03-21T21:55:04.083Z,13.52
2023-03-21T21:57:34.431Z,13.54
2023-03-21T22:00:12.793Z,13.65
2023-03-21T22:02:40.775Z,13.61
2023-03-21T22:05:09.091Z,13.54
2023-03-21T22:07:37.635Z,13.55
2023-03-21T22:10:05.820Z,13.67
2023-03-21T22:12:32.812Z,13.67
2023-03-21T22:14:59.791Z,13.62
2023-03-21T22:17:26.870Z,13.62
2023-03-21T22:20:05.262Z,13.67
2023-03-21T22:22:37.008Z,13.77
2023-03-21T22:25:06.750Z,13.80
2023-03-21T22:27:33.951Z,13.75
2023-03-21T22:30:07.454Z,13.67
2023-03-21T22:32:35.944Z,13.69
2023-03-21T22:35:03.550Z,13.75
2023-03-21T22:37:34.917Z,13.46
2023-03-21T22:40:02.181Z,13.48
2023-03-21T22:42:29.814Z,13.51
2023-03-21T22:44:56.835Z,13.54
2023-03-21T22:47:23.759Z,13.53
2023-03-21T22:49:51.690Z,13.47
2023-03-21T22:52:18.826Z,13.28
2023-03-21T22:54:46.608Z,13.40
2023-03-21T22:57:13.778Z,13.38
2023-03-21T22:59:40.698Z,13.21
2023-03-21T23:02:09.495Z,13.32
2023-03-21T23:04:36.863Z,13.21
2023-03-21T23:07:03.915Z,13.18
2023-03-21T23:09:30.936Z,13.13
2023-03-21T23:11:58.111Z,13.04
2023-03-21T23:14:25.626Z,13.06
2023-03-21T23:17:00.155Z,13.12
2023-03-21T23:19:28.871Z,13.14
2023-03-21T23:21:56.773Z,13.32
2023-03-21T23:24:24.217Z,13.40
2023-03-21T23:26:51.294Z,13.28
2023-03-21T23:29:18.162Z,13.29
2023-03-21T23:31:45.048Z,13.23
2023-03-21T23:34:12.780Z,13.22
2023-03-21T23:36:39.959Z,13.31
2023-03-21T23:39:06.941Z,13.34
2023-03-21T23:41:34.045Z,13.02
2023-03-21T23:44:01.172Z,13.02
2023-03-21T23:46:28.115Z,13.13
2023-03-21T23:48:55.079Z,13.14
2023-03-21T23:51:38.961Z,13.14
2023-03-21T23:54:06.146Z,13.14
2023-03-21T23:56:33.163Z,13.14
2023-03-21T23:59:00.349Z,13.16
